Snow/Ice From: 16-12-2017 16:00 Until: 17-12-2017 16:00 warning for: Snow/Ice Level: Yellow info button

Although rather usual in this region, locally or potentially dangerous phenomena are expected. (such as local winds, summer thunderstorms, rising streams or high waves) Be aware and pay attention to the latest weather updates, especially if you carry out activities exposed to weather or close to a stream or shoreline. 


Meteo18 Weather Cam more information Meteo18 Weather Cam


Thunder radar more information blitzortung!


warning for Snow/Ice more information rain snow radar


Visit our other weather sites:

Template documentation
and downloads

And another site



Weather Underground History page Text

Daily Summary for November 8, 2017 Units:  Metric    English   Both
« Previous Day
Next Day »
Daily Weekly Monthly Yearly Custom
  High: Low: Average:
Temperature: 7.3 °C -2.1 °C 3.6 °C
Dew Point: 4.6 °C -2.8 °C 2.3 °C
Humidity: 96 % 81 % 91 %
Wind Speed: 8.0 km/h 0.0 km/h 0.6 km/h
Wind Gust: 9.7 km/h - -
Wind:- - West
Pressure: 1023.2 hPa 1018.2 hPa -
Precipitation: 0.5 mm    
Historical Graphs
 
 
Tabular Data for November 8, 2017
Time Temperature Dew Point Pressure Wind Wind Speed Wind Gust Humidity Rainfall Rate (Hourly)
00:02 -0.5 °C -1.5 °C 1018.8 hPa West 1.6 km/h 1.6 km/h 93 % 0.0 mm
00:12 -0.4 °C -1.4 °C 1018.8 hPa Calm   1.6 km/h 93 % 0.0 mm
00:17 -0.2 °C -1.0 °C 1018.8 hPa Calm   1.6 km/h 94 % 0.0 mm
00:22 -0.3 °C -1.3 °C 1018.8 hPa Calm   1.6 km/h 93 % 0.0 mm
00:32 -0.3 °C -1.1 °C 1018.5 hPa Calm     94 % 0.0 mm
00:42 -0.7 °C -1.5 °C 1018.8 hPa Calm   3.2 km/h 94 % 0.0 mm
00:47 -0.6 °C -1.4 °C 1018.8 hPa WNW 1.6 km/h 3.2 km/h 94 % 0.0 mm
00:52 -0.6 °C -1.4 °C 1018.5 hPa Calm   3.2 km/h 94 % 0.0 mm
00:57 -0.7 °C -1.5 °C 1018.5 hPa Calm   4.8 km/h 94 % 0.0 mm
01:02 -0.7 °C -1.7 °C 1018.8 hPa Calm   4.8 km/h 93 % 0.0 mm
01:12 -1.4 °C -2.4 °C 1018.8 hPa Calm   1.6 km/h 93 % 0.0 mm
01:17 -1.7 °C -2.7 °C 1018.8 hPa Calm   3.2 km/h 93 % 0.0 mm
01:22 -1.4 °C -2.1 °C 1018.5 hPa Calm   3.2 km/h 95 % 0.0 mm
01:27 -1.2 °C -1.9 °C 1018.5 hPa Calm   3.2 km/h 95 % 0.0 mm
01:32 -1.2 °C -2.0 °C 1018.8 hPa Calm   1.6 km/h 94 % 0.0 mm
01:37 -1.4 °C -2.2 °C 1018.8 hPa Calm   1.6 km/h 94 % 0.0 mm
01:42 -1.5 °C -2.3 °C 1018.5 hPa Calm   1.6 km/h 94 % 0.0 mm
01:47 -1.6 °C -2.4 °C 1018.5 hPa Calm     94 % 0.0 mm
01:52 -1.6 °C -2.4 °C 1018.5 hPa Calm     94 % 0.0 mm
01:57 -1.7 °C -2.5 °C 1018.5 hPa Calm     94 % 0.0 mm
02:02 -1.9 °C -2.7 °C 1018.5 hPa Calm     94 % 0.0 mm
02:07 -1.8 °C -2.5 °C 1018.2 hPa Calm     95 % 0.0 mm
02:12 -1.8 °C -2.5 °C 1018.5 hPa Calm     95 % 0.0 mm
02:17 -1.7 °C -2.4 °C 1018.5 hPa Calm     95 % 0.0 mm
02:22 -1.8 °C -2.6 °C 1018.5 hPa WNW 1.6 km/h 1.6 km/h 94 % 0.0 mm
02:32 -1.8 °C -2.5 °C 1018.5 hPa Calm   3.2 km/h 95 % 0.0 mm
02:37 -1.9 °C -2.7 °C 1018.5 hPa Calm   1.6 km/h 94 % 0.0 mm
02:42 -1.7 °C -2.4 °C 1018.5 hPa Calm   1.6 km/h 95 % 0.0 mm
02:47 -1.6 °C -2.3 °C 1018.5 hPa Calm   1.6 km/h 95 % 0.0 mm
02:52 -1.8 °C -2.5 °C 1018.5 hPa Calm   1.6 km/h 95 % 0.0 mm
02:57 -1.9 °C -2.7 °C 1018.5 hPa WNW 1.6 km/h 1.6 km/h 94 % 0.0 mm
03:02 -2.1 °C -2.8 °C 1018.5 hPa Calm   1.6 km/h 95 % 0.0 mm
03:07 -2.1 °C -2.8 °C 1018.5 hPa Calm   1.6 km/h 95 % 0.0 mm
03:12 -2.1 °C -2.8 °C 1018.5 hPa Calm   1.6 km/h 95 % 0.0 mm
03:17 -1.9 °C -2.6 °C 1018.2 hPa Calm   1.6 km/h 95 % 0.0 mm
03:22 -1.8 °C -2.5 °C 1018.2 hPa Calm   1.6 km/h 95 % 0.0 mm
03:27 -1.9 °C -2.6 °C 1018.2 hPa Calm   1.6 km/h 95 % 0.0 mm
03:37 -1.9 °C -2.6 °C 1018.2 hPa Calm   1.6 km/h 95 % 0.0 mm
03:42 -1.8 °C -2.5 °C 1018.2 hPa Calm   1.6 km/h 95 % 0.0 mm
03:47 -1.9 °C -2.6 °C 1018.2 hPa Calm     95 % 0.0 mm
03:57 -2.0 °C -2.7 °C 1018.2 hPa Calm     95 % 0.0 mm
04:02 -2.0 °C -2.7 °C 1018.2 hPa Calm     95 % 0.0 mm
08:57 0.2 °C -0.5 °C 1019.2 hPa Calm     95 % 0.0 mm
09:02 0.2 °C -0.5 °C 1019.5 hPa Calm     95 % 0.0 mm
09:07 0.3 °C -0.4 °C 1019.5 hPa Calm     95 % 0.0 mm
09:12 0.4 °C -0.3 °C 1019.2 hPa Calm     95 % 0.0 mm
09:17 0.4 °C -0.3 °C 1019.2 hPa Calm     95 % 0.0 mm
09:22 0.5 °C -0.2 °C 1019.5 hPa Calm     95 % 0.0 mm
09:32 0.8 °C 0.2 °C 1019.5 hPa Calm     96 % 0.0 mm
09:37 0.8 °C 0.1 °C 1019.9 hPa Calm     95 % 0.0 mm
09:42 0.9 °C 0.2 °C 1019.9 hPa Calm     95 % 0.0 mm
09:52 1.1 °C 0.4 °C 1019.9 hPa Calm     95 % 0.0 mm
10:02 1.4 °C 0.7 °C 1019.9 hPa Calm     95 % 0.0 mm
10:12 1.6 °C 0.9 °C 1019.9 hPa Calm     95 % 0.0 mm
10:17 1.7 °C 1.0 °C 1019.9 hPa Calm     95 % 0.0 mm
10:22 1.7 °C 1.0 °C 1019.9 hPa Calm     95 % 0.0 mm
10:32 2.0 °C 1.3 °C 1019.9 hPa Calm     95 % 0.0 mm
10:37 2.1 °C 1.2 °C 1019.9 hPa Calm     94 % 0.0 mm
10:42 2.1 °C 1.2 °C 1019.9 hPa Calm     94 % 0.0 mm
10:52 2.1 °C 1.2 °C 1020.2 hPa Calm     94 % 0.0 mm
11:02 2.3 °C 1.4 °C 1020.2 hPa Calm     94 % 0.0 mm
11:12 2.6 °C 1.7 °C 1020.2 hPa Calm     94 % 0.3 mm
11:17 2.6 °C 1.6 °C 1020.2 hPa Calm     93 % 0.3 mm
11:22 2.6 °C 1.6 °C 1020.2 hPa Calm     93 % 0.3 mm
11:32 2.9 °C 1.9 °C 1020.2 hPa Calm     93 % 0.3 mm
11:42 3.5 °C 2.6 °C 1020.2 hPa Calm     94 % 0.3 mm
11:47 3.4 °C 2.4 °C 1020.5 hPa Calm     93 % 0.3 mm
11:52 3.4 °C 2.4 °C 1020.2 hPa Calm     93 % 0.3 mm
11:57 3.4 °C 2.4 °C 1020.2 hPa Calm     93 % 0.3 mm
12:02 3.6 °C 2.6 °C 1020.2 hPa Calm     93 % 0.3 mm
12:12 3.8 °C 2.8 °C 1020.2 hPa Calm     93 % 0.0 mm
12:17 3.9 °C 2.7 °C 1020.2 hPa Calm     92 % 0.0 mm
12:22 3.9 °C 2.7 °C 1020.2 hPa Calm     92 % 0.0 mm
12:32 4.1 °C 2.9 °C 1020.2 hPa Calm     92 % 0.0 mm
12:42 4.3 °C 3.1 °C 1020.2 hPa Calm   3.2 km/h 92 % 0.0 mm
12:47 4.3 °C 3.1 °C 1020.2 hPa Calm   3.2 km/h 92 % 0.0 mm
12:57 4.7 °C 3.5 °C 1020.2 hPa Calm   3.2 km/h 92 % 0.0 mm
13:02 4.7 °C 3.4 °C 1020.5 hPa ENE 1.6 km/h   91 % 0.0 mm
13:07 4.6 °C 3.3 °C 1020.5 hPa Calm   1.6 km/h 91 % 0.0 mm
13:12 4.7 °C 3.4 °C 1020.5 hPa Calm   3.2 km/h 91 % 0.0 mm
13:17 4.7 °C 3.4 °C 1020.2 hPa Calm   3.2 km/h 91 % 0.0 mm
13:22 4.8 °C 3.6 °C 1020.2 hPa Calm   3.2 km/h 92 % 0.0 mm
13:27 5.1 °C 3.8 °C 1020.2 hPa Calm     91 % 0.0 mm
13:32 5.1 °C 3.8 °C 1020.2 hPa Calm     91 % 0.0 mm
13:37 5.4 °C 4.2 °C 1020.2 hPa Calm   3.2 km/h 92 % 0.0 mm
13:42 5.6 °C 3.9 °C 1020.2 hPa East 1.6 km/h 3.2 km/h 89 % 0.0 mm
13:47 5.4 °C 3.7 °C 1020.2 hPa Calm   3.2 km/h 89 % 0.0 mm
13:57 5.5 °C 4.0 °C 1020.2 hPa Calm   3.2 km/h 90 % 0.0 mm
14:07 6.2 °C 4.4 °C 1020.2 hPa Calm   1.6 km/h 88 % 0.0 mm
14:12 6.3 °C 4.3 °C 1020.2 hPa Calm   3.2 km/h 87 % 0.0 mm
14:17 6.4 °C 4.2 °C 1020.2 hPa Calm   3.2 km/h 86 % 0.0 mm
14:27 6.5 °C 4.2 °C 1020.2 hPa SSW 3.2 km/h 4.8 km/h 85 % 0.0 mm
14:32 6.6 °C 4.4 °C 1020.2 hPa Calm   4.8 km/h 86 % 0.0 mm
14:37 6.6 °C 4.1 °C 1020.2 hPa Calm   4.8 km/h 84 % 0.0 mm
14:42 6.5 °C 4.0 °C 1020.2 hPa Calm   3.2 km/h 84 % 0.0 mm
14:47 6.5 °C 4.2 °C 1020.2 hPa Calm   3.2 km/h 85 % 0.0 mm
14:52 6.5 °C 4.0 °C 1020.5 hPa SSW 1.6 km/h 3.2 km/h 84 % 0.0 mm
14:57 6.6 °C 4.1 °C 1020.5 hPa Calm   3.2 km/h 84 % 0.0 mm
15:02 6.8 °C 4.5 °C 1020.5 hPa Calm   3.2 km/h 85 % 0.0 mm
15:07 7.2 °C 4.5 °C 1020.5 hPa SSW 1.6 km/h 3.2 km/h 83 % 0.0 mm
15:12 7.1 °C 4.4 °C 1020.5 hPa Calm   3.2 km/h 83 % 0.0 mm
15:17 7.1 °C 4.6 °C 1020.5 hPa Calm   3.2 km/h 84 % 0.0 mm
15:22 7.2 °C 4.5 °C 1020.5 hPa Calm   4.8 km/h 83 % 0.0 mm
15:27 7.3 °C 4.4 °C 1020.5 hPa Calm   4.8 km/h 82 % 0.0 mm
15:32 7.3 °C 4.3 °C 1020.5 hPa SW 1.6 km/h 3.2 km/h 81 % 0.0 mm
15:37 7.1 °C 4.1 °C 1020.5 hPa Calm   3.2 km/h 81 % 0.0 mm
15:42 7.0 °C 4.1 °C 1020.5 hPa Calm   3.2 km/h 82 % 0.0 mm
15:47 6.9 °C 4.0 °C 1020.5 hPa Calm   3.2 km/h 82 % 0.0 mm
15:57 6.8 °C 4.1 °C 1020.5 hPa SSE 1.6 km/h 3.2 km/h 83 % 0.0 mm
16:02 6.7 °C 4.0 °C 1020.9 hPa Calm   3.2 km/h 83 % 0.0 mm
16:07 6.7 °C 4.0 °C 1020.9 hPa Calm   3.2 km/h 83 % 0.0 mm
16:12 6.6 °C 4.1 °C 1020.9 hPa SSW 1.6 km/h 4.8 km/h 84 % 0.0 mm
16:17 6.5 °C 4.0 °C 1020.9 hPa SW 6.4 km/h 6.4 km/h 84 % 0.0 mm
16:22 6.4 °C 4.1 °C 1020.9 hPa SW 3.2 km/h 6.4 km/h 85 % 0.0 mm
16:27 6.3 °C 4.0 °C 1020.9 hPa SW 4.8 km/h 6.4 km/h 85 % 0.0 mm
16:32 6.3 °C 4.1 °C 1021.2 hPa Calm   6.4 km/h 86 % 0.0 mm
16:37 6.3 °C 4.1 °C 1021.2 hPa Calm   4.8 km/h 86 % 0.0 mm
16:42 6.3 °C 4.1 °C 1021.2 hPa Calm   4.8 km/h 86 % 0.0 mm
16:47 6.2 °C 4.0 °C 1021.2 hPa SW 1.6 km/h 4.8 km/h 86 % 0.0 mm
16:52 6.1 °C 3.9 °C 1021.2 hPa SW 3.2 km/h 4.8 km/h 86 % 0.0 mm
16:57 6.1 °C 3.9 °C 1021.2 hPa WSW 4.8 km/h 4.8 km/h 86 % 0.0 mm
17:07 6.1 °C 4.1 °C 1021.6 hPa Calm   4.8 km/h 87 % 0.0 mm
17:12 6.0 °C 4.0 °C 1021.6 hPa Calm   4.8 km/h 87 % 0.0 mm
17:17 6.0 °C 4.0 °C 1021.6 hPa Calm   4.8 km/h 87 % 0.0 mm
17:22 5.9 °C 3.9 °C 1021.6 hPa Calm   3.2 km/h 87 % 0.0 mm
17:32 5.9 °C 4.1 °C 1021.6 hPa Calm   3.2 km/h 88 % 0.0 mm
17:37 5.9 °C 4.1 °C 1021.6 hPa SW 1.6 km/h 1.6 km/h 88 % 0.0 mm
17:42 5.9 °C 4.1 °C 1021.6 hPa Calm   1.6 km/h 88 % 0.0 mm
17:47 5.9 °C 4.2 °C 1021.6 hPa Calm   1.6 km/h 89 % 0.0 mm
17:52 5.8 °C 4.1 °C 1021.6 hPa SW 1.6 km/h 3.2 km/h 89 % 0.0 mm
17:57 5.8 °C 4.1 °C 1021.6 hPa Calm   3.2 km/h 89 % 0.0 mm
18:02 5.8 °C 4.1 °C 1021.6 hPa SW 3.2 km/h 3.2 km/h 89 % 0.0 mm
18:12 5.7 °C 4.0 °C 1021.6 hPa WSW 1.6 km/h 3.2 km/h 89 % 0.0 mm
18:17 5.7 °C 4.2 °C 1021.6 hPa West 1.6 km/h 3.2 km/h 90 % 0.0 mm
18:22 5.7 °C 4.2 °C 1021.6 hPa Calm   3.2 km/h 90 % 0.0 mm
18:32 5.6 °C 4.1 °C 1021.6 hPa West 1.6 km/h 1.6 km/h 90 % 0.0 mm
18:42 5.6 °C 4.2 °C 1021.6 hPa Calm   3.2 km/h 91 % 0.0 mm
18:47 5.6 °C 4.2 °C 1021.9 hPa Calm   3.2 km/h 91 % 0.0 mm
18:52 5.5 °C 4.1 °C 1021.9 hPa Calm   1.6 km/h 91 % 0.0 mm
18:57 5.4 °C 4.0 °C 1021.9 hPa Calm   1.6 km/h 91 % 0.0 mm
19:02 5.4 °C 4.0 °C 1021.9 hPa Calm     91 % 0.0 mm
19:07 5.4 °C 4.2 °C 1022.2 hPa Calm     92 % 0.0 mm
19:12 5.3 °C 4.1 °C 1022.2 hPa Calm     92 % 0.0 mm
19:17 5.3 °C 4.1 °C 1022.2 hPa Calm     92 % 0.0 mm
19:22 5.3 °C 4.1 °C 1022.2 hPa Calm     92 % 0.0 mm
19:27 5.3 °C 4.1 °C 1022.2 hPa Calm     92 % 0.0 mm
19:32 5.3 °C 4.1 °C 1022.2 hPa Calm     92 % 0.0 mm
19:37 5.4 °C 4.2 °C 1022.2 hPa WNW 1.6 km/h 4.8 km/h 92 % 0.0 mm
19:42 5.4 °C 4.2 °C 1022.2 hPa WNW 3.2 km/h 4.8 km/h 92 % 0.0 mm
19:47 5.6 °C 4.4 °C 1022.2 hPa NW 6.4 km/h 6.4 km/h 92 % 0.0 mm
19:52 5.6 °C 4.4 °C 1022.2 hPa WNW 1.6 km/h 8.0 km/h 92 % 0.0 mm
19:57 5.7 °C 4.5 °C 1022.2 hPa NW 1.6 km/h 8.0 km/h 92 % 0.0 mm
20:02 5.7 °C 4.5 °C 1022.2 hPa West 1.6 km/h 8.0 km/h 92 % 0.0 mm
20:07 5.8 °C 4.4 °C 1022.2 hPa WNW 1.6 km/h 6.4 km/h 91 % 0.0 mm
20:12 5.8 °C 4.4 °C 1022.2 hPa NW 3.2 km/h 6.4 km/h 91 % 0.0 mm
20:22 5.7 °C 4.3 °C 1022.6 hPa WNW 8.0 km/h 8.0 km/h 91 % 0.0 mm
20:27 5.7 °C 4.3 °C 1022.6 hPa WNW 4.8 km/h 9.7 km/h 91 % 0.0 mm
20:32 5.7 °C 4.3 °C 1022.6 hPa WNW 4.8 km/h 9.7 km/h 91 % 0.0 mm
20:37 5.7 °C 4.3 °C 1022.6 hPa Calm   9.7 km/h 91 % 0.0 mm
20:42 5.6 °C 4.2 °C 1022.6 hPa NW 3.2 km/h 6.4 km/h 91 % 0.0 mm
20:47 5.6 °C 4.2 °C 1022.6 hPa NW 3.2 km/h 6.4 km/h 91 % 0.0 mm
20:52 5.6 °C 4.2 °C 1022.6 hPa Calm   6.4 km/h 91 % 0.0 mm
20:57 5.6 °C 4.2 °C 1022.6 hPa Calm   6.4 km/h 91 % 0.0 mm
21:02 5.6 °C 4.2 °C 1022.6 hPa Calm   6.4 km/h 91 % 0.0 mm
21:07 5.6 °C 4.2 °C 1022.9 hPa Calm   3.2 km/h 91 % 0.0 mm
21:12 5.6 °C 4.2 °C 1022.6 hPa Calm   1.6 km/h 91 % 0.0 mm
21:17 5.6 °C 4.2 °C 1022.6 hPa North 1.6 km/h   91 % 0.0 mm
21:27 5.6 °C 4.4 °C 1022.6 hPa Calm   1.6 km/h 92 % 0.0 mm
21:37 5.6 °C 4.4 °C 1022.9 hPa NNW 1.6 km/h 4.8 km/h 92 % 0.0 mm
21:42 5.6 °C 4.4 °C 1022.9 hPa NW 3.2 km/h 4.8 km/h 92 % 0.0 mm
21:52 5.5 °C 4.5 °C 1022.9 hPa NNW 1.6 km/h 4.8 km/h 93 % 0.0 mm
21:57 5.5 °C 4.5 °C 1022.9 hPa NNW 1.6 km/h 4.8 km/h 93 % 0.0 mm
22:02 5.5 °C 4.5 °C 1022.9 hPa Calm   4.8 km/h 93 % 0.0 mm
22:07 5.4 °C 4.4 °C 1022.9 hPa Calm   4.8 km/h 93 % 0.0 mm
22:12 5.4 °C 4.4 °C 1022.9 hPa Calm   3.2 km/h 93 % 0.0 mm
22:17 5.4 °C 4.4 °C 1022.9 hPa Calm   1.6 km/h 93 % 0.3 mm
22:22 5.4 °C 4.5 °C 1022.9 hPa Calm   1.6 km/h 94 % 0.3 mm
22:32 5.4 °C 4.5 °C 1022.9 hPa Calm   1.6 km/h 94 % 0.3 mm
22:37 5.4 °C 4.5 °C 1022.9 hPa Calm   1.6 km/h 94 % 0.3 mm
22:42 5.4 °C 4.5 °C 1022.9 hPa Calm     94 % 0.3 mm
22:47 5.4 °C 4.5 °C 1022.9 hPa Calm     94 % 0.3 mm
22:52 5.4 °C 4.5 °C 1022.9 hPa Calm     94 % 0.3 mm
22:57 5.5 °C 4.6 °C 1022.9 hPa Calm     94 % 0.3 mm
23:02 5.5 °C 4.6 °C 1022.9 hPa Calm   1.6 km/h 94 % 0.3 mm
23:07 5.5 °C 4.6 °C 1022.9 hPa Calm   1.6 km/h 94 % 0.3 mm
23:12 5.5 °C 4.6 °C 1022.9 hPa Calm   1.6 km/h 94 % 0.3 mm
23:17 5.5 °C 4.6 °C 1022.9 hPa Calm     94 % 0.0 mm
23:22 5.5 °C 4.6 °C 1022.9 hPa Calm     94 % 0.0 mm
23:32 5.5 °C 4.6 °C 1022.9 hPa Calm   1.6 km/h 94 % 0.0 mm
23:37 5.5 °C 4.6 °C 1022.9 hPa Calm   1.6 km/h 94 % 0.0 mm
23:47 5.4 °C 4.5 °C 1023.2 hPa Calm     94 % 0.0 mm
23:52 5.4 °C 4.5 °C 1022.9 hPa Calm     94 % 0.0 mm
23:57 5.4 °C 4.5 °C 1022.9 hPa Calm     94 % 0.0 mm
Meteo18
Compliments of Weather Underground - 4 mb

Script developed by  Jim McMurry - jmcmurry@mwt.net Adapted for the template by  Wim van der Kuil - Leuven-Template.eu

You find our weather info also at:

European Weather Network

Weather Underground

Equipment we use:

Weather-station
Davis Vue

Weather-program
Meteohub

Weather-server
Raspberry PI 2 B+

Provider
1 and 1

Davis Vue

Meteohub

Raspberry PI 2 B+

1 and 1